sensor_id;sensor_type;location;lat;lon;timestamp;P1;durP1;ratioP1;P2;durP2;ratioP2
72639;SDS011;60683;51.730;8.762;2023-02-10T08:41:21;28.38;;;9.15;;
72639;SDS011;60683;51.730;8.762;2023-02-10T08:43:49;26.48;;;11.07;;
72639;SDS011;60683;51.730;8.762;2023-02-10T08:50:17;21.70;;;9.15;;
72639;SDS011;60683;51.730;8.762;2023-02-10T08:52:45;29.70;;;11.50;;
72639;SDS011;60683;51.730;8.762;2023-02-10T08:55:12;20.13;;;9.60;;
72639;SDS011;60683;51.730;8.762;2023-02-10T08:57:42;28.55;;;11.55;;
72639;SDS011;60683;51.730;8.762;2023-02-10T09:00:10;34.25;;;13.32;;
72639;SDS011;60683;51.730;8.762;2023-02-10T09:02:39;23.10;;;10.50;;
72639;SDS011;60683;51.730;8.762;2023-02-10T09:05:07;28.83;;;12.45;;
72639;SDS011;60683;51.730;8.762;2023-02-10T09:07:35;18.63;;;7.00;;
72639;SDS011;60683;51.730;8.762;2023-02-10T09:10:03;26.67;;;11.18;;
72639;SDS011;60683;51.730;8.762;2023-02-10T09:12:31;29.20;;;10.93;;
72639;SDS011;60683;51.730;8.762;2023-02-10T09:15:01;17.83;;;8.45;;
72639;SDS011;60683;51.730;8.762;2023-02-10T09:17:29;18.45;;;7.78;;
72639;SDS011;60683;51.730;8.762;2023-02-10T09:19:57;28.45;;;11.65;;
72639;SDS011;60683;51.730;8.762;2023-02-10T09:22:25;28.00;;;12.85;;
72639;SDS011;60683;51.730;8.762;2023-02-10T09:24:53;22.73;;;9.30;;
72639;SDS011;60683;51.730;8.762;2023-02-10T09:27:21;26.13;;;10.02;;
72639;SDS011;60683;51.730;8.762;2023-02-10T09:29:49;29.77;;;11.10;;
72639;SDS011;60683;51.730;8.762;2023-02-10T09:32:18;24.08;;;9.65;;
72639;SDS011;60683;51.730;8.762;2023-02-10T09:34:46;18.08;;;8.55;;
72639;SDS011;60683;51.730;8.762;2023-02-10T09:37:14;26.83;;;10.32;;
72639;SDS011;60683;51.730;8.762;2023-02-10T09:39:42;14.60;;;7.13;;
72639;SDS011;60683;51.730;8.762;2023-02-10T09:42:27;19.98;;;10.70;;
72639;SDS011;60683;51.730;8.762;2023-02-10T09:45:03;17.33;;;7.43;;
72639;SDS011;60683;51.730;8.762;2023-02-10T09:47:40;21.13;;;8.73;;
72639;SDS011;60683;51.730;8.762;2023-02-10T09:50:33;17.90;;;9.60;;
72639;SDS011;60683;51.730;8.762;2023-02-10T09:53:12;17.23;;;8.60;;
72639;SDS011;60683;51.730;8.762;2023-02-10T09:55:43;14.73;;;7.00;;
72639;SDS011;60683;51.730;8.762;2023-02-10T09:58:17;24.05;;;10.40;;
72639;SDS011;60683;51.730;8.762;2023-02-10T10:00:48;15.30;;;6.72;;
72639;SDS011;60683;51.730;8.762;2023-02-10T10:03:21;15.98;;;7.53;;
72639;SDS011;60683;51.730;8.762;2023-02-10T10:05:56;25.83;;;11.07;;
72639;SDS011;60683;51.730;8.762;2023-02-10T10:08:29;16.48;;;7.13;;
72639;SDS011;60683;51.730;8.762;2023-02-10T10:11:04;20.73;;;8.50;;
72639;SDS011;60683;51.730;8.762;2023-02-10T10:13:33;23.70;;;9.50;;
72639;SDS011;60683;51.730;8.762;2023-02-10T10:16:09;23.63;;;11.88;;
72639;SDS011;60683;51.730;8.762;2023-02-10T10:18:47;22.15;;;7.90;;
72639;SDS011;60683;51.730;8.762;2023-02-10T10:21:22;11.68;;;5.18;;
72639;SDS011;60683;51.730;8.762;2023-02-10T10:23:59;17.33;;;8.27;;
72639;SDS011;60683;51.730;8.762;2023-02-10T10:26:38;14.65;;;6.22;;
72639;SDS011;60683;51.730;8.762;2023-02-10T10:29:19;14.85;;;6.38;;
72639;SDS011;60683;51.730;8.762;2023-02-10T10:31:48;19.88;;;8.63;;
72639;SDS011;60683;51.730;8.762;2023-02-10T10:34:23;15.00;;;6.85;;
72639;SDS011;60683;51.730;8.762;2023-02-10T10:36:54;17.02;;;7.53;;
72639;SDS011;60683;51.730;8.762;2023-02-10T10:39:23;20.88;;;8.18;;
72639;SDS011;60683;51.730;8.762;2023-02-10T10:41:55;16.58;;;7.15;;
72639;SDS011;60683;51.730;8.762;2023-02-10T10:44:25;18.92;;;7.90;;
72639;SDS011;60683;51.730;8.762;2023-02-10T10:46:55;20.27;;;7.07;;
72639;SDS011;60683;51.730;8.762;2023-02-10T10:49:35;19.15;;;7.47;;
72639;SDS011;60683;51.730;8.762;2023-02-10T10:52:05;12.90;;;6.00;;
72639;SDS011;60683;51.730;8.762;2023-02-10T10:54:45;16.60;;;6.60;;
72639;SDS011;60683;51.730;8.762;2023-02-10T10:57:12;13.95;;;6.80;;
72639;SDS011;60683;51.730;8.762;2023-02-10T10:59:41;17.50;;;7.90;;
72639;SDS011;60683;51.730;8.762;2023-02-10T11:02:11;20.23;;;9.48;;
72639;SDS011;60683;51.730;8.762;2023-02-10T11:04:41;16.20;;;7.72;;
72639;SDS011;60683;51.730;8.762;2023-02-10T11:07:11;17.85;;;7.65;;
72639;SDS011;60683;51.730;8.762;2023-02-10T11:09:40;16.23;;;7.45;;
72639;SDS011;60683;51.730;8.762;2023-02-10T11:12:15;17.77;;;6.70;;
72639;SDS011;60683;51.730;8.762;2023-02-10T11:14:43;16.23;;;6.68;;
72639;SDS011;60683;51.730;8.762;2023-02-10T11:17:19;20.95;;;8.23;;
72639;SDS011;60683;51.730;8.762;2023-02-10T11:19:56;22.85;;;8.23;;
72639;SDS011;60683;51.730;8.762;2023-02-10T11:22:24;18.70;;;8.15;;
72639;SDS011;60683;51.730;8.762;2023-02-10T11:24:53;18.35;;;6.97;;
72639;SDS011;60683;51.730;8.762;2023-02-10T11:27:23;13.60;;;7.57;;
72639;SDS011;60683;51.730;8.762;2023-02-10T11:29:52;16.17;;;6.72;;
72639;SDS011;60683;51.730;8.762;2023-02-10T11:32:22;20.40;;;8.38;;
72639;SDS011;60683;51.730;8.762;2023-02-10T11:34:51;19.88;;;7.38;;
72639;SDS011;60683;51.730;8.762;2023-02-10T11:37:22;23.55;;;8.20;;
72639;SDS011;60683;51.730;8.762;2023-02-10T11:39:53;18.17;;;7.45;;
72639;SDS011;60683;51.730;8.762;2023-02-10T11:42:22;16.77;;;7.65;;
72639;SDS011;60683;51.730;8.762;2023-02-10T11:44:52;15.50;;;6.60;;
72639;SDS011;60683;51.730;8.762;2023-02-10T11:47:21;19.27;;;8.10;;
72639;SDS011;60683;51.730;8.762;2023-02-10T11:49:48;13.07;;;6.00;;
72639;SDS011;60683;51.730;8.762;2023-02-10T11:52:16;15.18;;;7.00;;
72639;SDS011;60683;51.730;8.762;2023-02-10T11:54:46;17.48;;;7.13;;
72639;SDS011;60683;51.730;8.762;2023-02-10T11:57:17;21.23;;;8.93;;
72639;SDS011;60683;51.730;8.762;2023-02-10T12:00:28;14.45;;;5.30;;
72639;SDS011;60683;51.730;8.762;2023-02-10T12:05:57;14.45;;;5.95;;
72639;SDS011;60683;51.730;8.762;2023-02-10T12:08:32;18.73;;;7.75;;
72639;SDS011;60683;51.730;8.762;2023-02-10T12:11:06;13.25;;;5.00;;
72639;SDS011;60683;51.730;8.762;2023-02-10T12:13:38;15.90;;;6.88;;
72639;SDS011;60683;51.730;8.762;2023-02-10T12:16:12;21.45;;;10.52;;
72639;SDS011;60683;51.730;8.762;2023-02-10T12:18:53;17.30;;;6.63;;
72639;SDS011;60683;51.730;8.762;2023-02-10T12:21:28;15.40;;;6.88;;
72639;SDS011;60683;51.730;8.762;2023-02-10T12:24:17;16.55;;;6.63;;
72639;SDS011;60683;51.730;8.762;2023-02-10T12:26:53;14.23;;;6.72;;
72639;SDS011;60683;51.730;8.762;2023-02-10T12:29:26;13.20;;;5.90;;
72639;SDS011;60683;51.730;8.762;2023-02-10T12:32:00;12.10;;;4.85;;
72639;SDS011;60683;51.730;8.762;2023-02-10T12:34:36;15.25;;;6.22;;
72639;SDS011;60683;51.730;8.762;2023-02-10T12:37:13;21.95;;;6.22;;
72639;SDS011;60683;51.730;8.762;2023-02-10T12:39:47;13.43;;;6.63;;
72639;SDS011;60683;51.730;8.762;2023-02-10T12:42:28;15.65;;;7.03;;
72639;SDS011;60683;51.730;8.762;2023-02-10T12:45:05;19.80;;;6.70;;
72639;SDS011;60683;51.730;8.762;2023-02-10T12:47:38;19.05;;;7.68;;
72639;SDS011;60683;51.730;8.762;2023-02-10T12:50:17;17.90;;;6.35;;
72639;SDS011;60683;51.730;8.762;2023-02-10T12:53:08;11.90;;;5.35;;
72639;SDS011;60683;51.730;8.762;2023-02-10T12:55:41;16.38;;;5.90;;
72639;SDS011;60683;51.730;8.762;2023-02-10T12:58:13;13.40;;;5.45;;
72639;SDS011;60683;51.730;8.762;2023-02-10T13:03:11;11.43;;;4.63;;
72639;SDS011;60683;51.730;8.762;2023-02-10T13:05:43;16.52;;;6.68;;
72639;SDS011;60683;51.730;8.762;2023-02-10T13:08:14;16.70;;;6.20;;
72639;SDS011;60683;51.730;8.762;2023-02-10T13:10:45;15.43;;;5.50;;
72639;SDS011;60683;51.730;8.762;2023-02-10T13:13:17;12.35;;;4.45;;
72639;SDS011;60683;51.730;8.762;2023-02-10T13:15:47;18.48;;;5.32;;
72639;SDS011;60683;51.730;8.762;2023-02-10T13:18:17;10.25;;;4.55;;
72639;SDS011;60683;51.730;8.762;2023-02-10T13:20:49;10.05;;;4.53;;
72639;SDS011;60683;51.730;8.762;2023-02-10T13:23:23;10.10;;;4.13;;
72639;SDS011;60683;51.730;8.762;2023-02-10T13:25:58;14.93;;;4.78;;
72639;SDS011;60683;51.730;8.762;2023-02-10T13:28:34;16.05;;;4.53;;
72639;SDS011;60683;51.730;8.762;2023-02-10T13:31:11;8.77;;;4.15;;
72639;SDS011;60683;51.730;8.762;2023-02-10T13:33:46;11.65;;;4.97;;
72639;SDS011;60683;51.730;8.762;2023-02-10T13:36:18;6.95;;;3.65;;
72639;SDS011;60683;51.730;8.762;2023-02-10T13:38:57;8.60;;;3.83;;
72639;SDS011;60683;51.730;8.762;2023-02-10T13:41:26;10.73;;;4.20;;
72639;SDS011;60683;51.730;8.762;2023-02-10T13:44:18;10.45;;;4.72;;
72639;SDS011;60683;51.730;8.762;2023-02-10T13:46:55;11.38;;;5.15;;
72639;SDS011;60683;51.730;8.762;2023-02-10T13:49:25;16.80;;;4.07;;
72639;SDS011;60683;51.730;8.762;2023-02-10T13:52:00;10.93;;;4.60;;
72639;SDS011;60683;51.730;8.762;2023-02-10T13:54:32;8.57;;;3.67;;
72639;SDS011;60683;51.730;8.762;2023-02-10T13:57:01;13.75;;;4.78;;
72639;SDS011;60683;51.730;8.762;2023-02-10T13:59:37;11.35;;;4.32;;
72639;SDS011;60683;51.730;8.762;2023-02-10T14:02:11;13.50;;;4.57;;
72639;SDS011;60683;51.730;8.762;2023-02-10T14:04:43;11.52;;;4.63;;
72639;SDS011;60683;51.730;8.762;2023-02-10T14:07:14;9.55;;;4.15;;
72639;SDS011;60683;51.730;8.762;2023-02-10T14:09:43;9.70;;;4.28;;
72639;SDS011;60683;51.730;8.762;2023-02-10T14:12:23;10.75;;;4.75;;
72639;SDS011;60683;51.730;8.762;2023-02-10T14:14:53;10.18;;;4.82;;
72639;SDS011;60683;51.730;8.762;2023-02-10T14:17:21;11.18;;;4.43;;
72639;SDS011;60683;51.730;8.762;2023-02-10T14:19:55;11.35;;;4.30;;
72639;SDS011;60683;51.730;8.762;2023-02-10T14:22:25;15.57;;;5.72;;
72639;SDS011;60683;51.730;8.762;2023-02-10T14:24:55;9.40;;;3.85;;
72639;SDS011;60683;51.730;8.762;2023-02-10T14:27:25;12.85;;;5.70;;
72639;SDS011;60683;51.730;8.762;2023-02-10T14:29:55;11.70;;;5.05;;
72639;SDS011;60683;51.730;8.762;2023-02-10T14:32:23;8.68;;;3.85;;
72639;SDS011;60683;51.730;8.762;2023-02-10T14:34:55;11.75;;;4.97;;
72639;SDS011;60683;51.730;8.762;2023-02-10T14:37:23;13.77;;;5.18;;
72639;SDS011;60683;51.730;8.762;2023-02-10T14:39:52;11.43;;;5.28;;
72639;SDS011;60683;51.730;8.762;2023-02-10T14:42:21;12.48;;;6.78;;
72639;SDS011;60683;51.730;8.762;2023-02-10T14:44:50;9.60;;;4.55;;
72639;SDS011;60683;51.730;8.762;2023-02-10T14:47:20;14.23;;;5.13;;
72639;SDS011;60683;51.730;8.762;2023-02-10T14:49:49;13.75;;;6.40;;
72639;SDS011;60683;51.730;8.762;2023-02-10T14:52:21;15.88;;;7.00;;
72639;SDS011;60683;51.730;8.762;2023-02-10T14:54:49;13.48;;;6.25;;
72639;SDS011;60683;51.730;8.762;2023-02-10T14:57:20;13.23;;;6.05;;
72639;SDS011;60683;51.730;8.762;2023-02-10T14:59:52;10.35;;;4.18;;
72639;SDS011;60683;51.730;8.762;2023-02-10T15:02:22;12.82;;;5.28;;
72639;SDS011;60683;51.730;8.762;2023-02-10T15:04:51;12.88;;;5.72;;
72639;SDS011;60683;51.730;8.762;2023-02-10T15:07:21;10.40;;;5.00;;
72639;SDS011;60683;51.730;8.762;2023-02-10T15:09:50;12.10;;;5.90;;
72639;SDS011;60683;51.730;8.762;2023-02-10T15:12:18;18.38;;;6.68;;
72639;SDS011;60683;51.730;8.762;2023-02-10T15:14:47;15.50;;;6.50;;
72639;SDS011;60683;51.730;8.762;2023-02-10T15:17:17;14.00;;;6.00;;
72639;SDS011;60683;51.730;8.762;2023-02-10T15:19:54;11.18;;;4.50;;
72639;SDS011;60683;51.730;8.762;2023-02-10T15:22:32;12.13;;;5.72;;
72639;SDS011;60683;51.730;8.762;2023-02-10T15:30:24;15.35;;;5.70;;
72639;SDS011;60683;51.730;8.762;2023-02-10T15:32:54;14.32;;;5.75;;
72639;SDS011;60683;51.730;8.762;2023-02-10T15:35:24;15.77;;;6.85;;
72639;SDS011;60683;51.730;8.762;2023-02-10T15:37:53;6.32;;;3.15;;
72639;SDS011;60683;51.730;8.762;2023-02-10T15:40:22;14.50;;;5.95;;
72639;SDS011;60683;51.730;8.762;2023-02-10T15:42:55;10.38;;;5.03;;
72639;SDS011;60683;51.730;8.762;2023-02-10T15:45:24;7.72;;;4.55;;
72639;SDS011;60683;51.730;8.762;2023-02-10T15:47:58;10.35;;;4.38;;
72639;SDS011;60683;51.730;8.762;2023-02-10T15:50:28;13.30;;;5.68;;
72639;SDS011;60683;51.730;8.762;2023-02-10T15:52:56;12.77;;;4.85;;
72639;SDS011;60683;51.730;8.762;2023-02-10T15:55:26;14.88;;;6.82;;
72639;SDS011;60683;51.730;8.762;2023-02-10T15:57:55;16.88;;;6.85;;
72639;SDS011;60683;51.730;8.762;2023-02-10T16:00:27;18.27;;;7.25;;
72639;SDS011;60683;51.730;8.762;2023-02-10T16:02:55;11.05;;;4.90;;
72639;SDS011;60683;51.730;8.762;2023-02-10T16:05:24;11.70;;;5.45;;
72639;SDS011;60683;51.730;8.762;2023-02-10T16:07:53;11.85;;;5.75;;
72639;SDS011;60683;51.730;8.762;2023-02-10T16:12:51;12.70;;;5.32;;
72639;SDS011;60683;51.730;8.762;2023-02-10T16:15:19;15.77;;;6.32;;
72639;SDS011;60683;51.730;8.762;2023-02-10T16:17:49;14.48;;;7.45;;
72639;SDS011;60683;51.730;8.762;2023-02-10T16:20:19;13.25;;;5.95;;
72639;SDS011;60683;51.730;8.762;2023-02-10T16:22:47;16.52;;;6.55;;
72639;SDS011;60683;51.730;8.762;2023-02-10T16:25:17;17.20;;;7.40;;
72639;SDS011;60683;51.730;8.762;2023-02-10T16:27:45;17.88;;;7.57;;
72639;SDS011;60683;51.730;8.762;2023-02-10T16:30:14;18.95;;;8.02;;
72639;SDS011;60683;51.730;8.762;2023-02-10T16:32:43;12.75;;;6.15;;
72639;SDS011;60683;51.730;8.762;2023-02-10T16:35:11;16.10;;;7.22;;
72639;SDS011;60683;51.730;8.762;2023-02-10T16:37:39;14.43;;;6.45;;
72639;SDS011;60683;51.730;8.762;2023-02-10T16:40:09;16.02;;;6.63;;
72639;SDS011;60683;51.730;8.762;2023-02-10T16:42:43;18.55;;;8.23;;
72639;SDS011;60683;51.730;8.762;2023-02-10T16:45:11;16.10;;;6.32;;
72639;SDS011;60683;51.730;8.762;2023-02-10T16:47:38;19.58;;;7.82;;
72639;SDS011;60683;51.730;8.762;2023-02-10T16:50:06;13.30;;;6.45;;
72639;SDS011;60683;51.730;8.762;2023-02-10T16:52:36;18.70;;;7.63;;
72639;SDS011;60683;51.730;8.762;2023-02-10T16:55:04;14.45;;;7.47;;
72639;SDS011;60683;51.730;8.762;2023-02-10T16:57:32;14.18;;;6.65;;
72639;SDS011;60683;51.730;8.762;2023-02-10T17:00:02;19.85;;;6.60;;
72639;SDS011;60683;51.730;8.762;2023-02-10T17:02:30;18.83;;;7.68;;
72639;SDS011;60683;51.730;8.762;2023-02-10T17:04:57;19.42;;;8.02;;
72639;SDS011;60683;51.730;8.762;2023-02-10T17:07:25;17.88;;;7.28;;
72639;SDS011;60683;51.730;8.762;2023-02-10T17:09:52;19.15;;;8.10;;
72639;SDS011;60683;51.730;8.762;2023-02-10T17:12:20;16.38;;;6.68;;
72639;SDS011;60683;51.730;8.762;2023-02-10T17:14:47;14.70;;;6.30;;
72639;SDS011;60683;51.730;8.762;2023-02-10T17:17:16;14.90;;;6.65;;
72639;SDS011;60683;51.730;8.762;2023-02-10T17:19:44;15.38;;;7.25;;
72639;SDS011;60683;51.730;8.762;2023-02-10T17:22:11;18.80;;;8.02;;
72639;SDS011;60683;51.730;8.762;2023-02-10T17:24:39;21.73;;;9.40;;
72639;SDS011;60683;51.730;8.762;2023-02-10T17:27:07;16.33;;;8.65;;
72639;SDS011;60683;51.730;8.762;2023-02-10T17:29:35;17.23;;;6.55;;
72639;SDS011;60683;51.730;8.762;2023-02-10T17:32:02;10.82;;;5.30;;
72639;SDS011;60683;51.730;8.762;2023-02-10T17:34:31;25.35;;;10.70;;
72639;SDS011;60683;51.730;8.762;2023-02-10T17:37:01;13.80;;;7.20;;
72639;SDS011;60683;51.730;8.762;2023-02-10T17:39:31;19.75;;;8.32;;
72639;SDS011;60683;51.730;8.762;2023-02-10T17:42:03;16.63;;;6.30;;
72639;SDS011;60683;51.730;8.762;2023-02-10T17:44:30;19.90;;;9.32;;
72639;SDS011;60683;51.730;8.762;2023-02-10T17:46:58;27.17;;;10.27;;
72639;SDS011;60683;51.730;8.762;2023-02-10T17:49:26;21.95;;;10.32;;
72639;SDS011;60683;51.730;8.762;2023-02-10T17:51:56;24.58;;;9.50;;
72639;SDS011;60683;51.730;8.762;2023-02-10T17:54:24;19.02;;;10.25;;
72639;SDS011;60683;51.730;8.762;2023-02-10T17:56:53;20.92;;;7.88;;
72639;SDS011;60683;51.730;8.762;2023-02-10T17:59:20;19.85;;;9.57;;
72639;SDS011;60683;51.730;8.762;2023-02-10T18:01:47;20.17;;;9.07;;
72639;SDS011;60683;51.730;8.762;2023-02-10T18:04:21;26.40;;;10.15;;
72639;SDS011;60683;51.730;8.762;2023-02-10T18:06:48;22.17;;;10.52;;
72639;SDS011;60683;51.730;8.762;2023-02-10T18:09:17;29.60;;;12.30;;
72639;SDS011;60683;51.730;8.762;2023-02-10T18:11:46;23.65;;;10.68;;
72639;SDS011;60683;51.730;8.762;2023-02-10T18:14:13;23.95;;;9.77;;
72639;SDS011;60683;51.730;8.762;2023-02-10T18:16:41;26.30;;;10.27;;
72639;SDS011;60683;51.730;8.762;2023-02-10T18:19:08;21.58;;;11.68;;
72639;SDS011;60683;51.730;8.762;2023-02-10T18:21:36;21.30;;;10.00;;
72639;SDS011;60683;51.730;8.762;2023-02-10T18:24:03;26.67;;;11.25;;
72639;SDS011;60683;51.730;8.762;2023-02-10T18:26:33;23.25;;;10.60;;
72639;SDS011;60683;51.730;8.762;2023-02-10T18:29:00;28.08;;;11.80;;
72639;SDS011;60683;51.730;8.762;2023-02-10T18:31:28;16.90;;;6.43;;
72639;SDS011;60683;51.730;8.762;2023-02-10T18:33:55;21.60;;;9.55;;
72639;SDS011;60683;51.730;8.762;2023-02-10T18:36:23;15.45;;;6.40;;
72639;SDS011;60683;51.730;8.762;2023-02-10T18:38:50;24.83;;;9.77;;
72639;SDS011;60683;51.730;8.762;2023-02-10T18:41:18;21.83;;;8.93;;
72639;SDS011;60683;51.730;8.762;2023-02-10T18:43:46;23.25;;;9.48;;
72639;SDS011;60683;51.730;8.762;2023-02-10T18:46:14;24.95;;;11.02;;
72639;SDS011;60683;51.730;8.762;2023-02-10T18:48:42;27.83;;;11.07;;
72639;SDS011;60683;51.730;8.762;2023-02-10T18:51:10;27.85;;;11.15;;
72639;SDS011;60683;51.730;8.762;2023-02-10T18:53:38;31.08;;;13.00;;
72639;SDS011;60683;51.730;8.762;2023-02-10T18:56:07;24.83;;;11.43;;
72639;SDS011;60683;51.730;8.762;2023-02-10T18:58:35;22.42;;;9.73;;
72639;SDS011;60683;51.730;8.762;2023-02-10T19:01:05;28.40;;;11.43;;
72639;SDS011;60683;51.730;8.762;2023-02-10T19:03:33;20.15;;;7.88;;
72639;SDS011;60683;51.730;8.762;2023-02-10T19:06:01;23.17;;;10.13;;
72639;SDS011;60683;51.730;8.762;2023-02-10T19:08:28;24.05;;;10.88;;
72639;SDS011;60683;51.730;8.762;2023-02-10T19:10:58;19.60;;;9.98;;
72639;SDS011;60683;51.730;8.762;2023-02-10T19:13:26;33.55;;;11.88;;
72639;SDS011;60683;51.730;8.762;2023-02-10T19:15:53;30.17;;;11.63;;
72639;SDS011;60683;51.730;8.762;2023-02-10T19:18:22;19.63;;;9.23;;
72639;SDS011;60683;51.730;8.762;2023-02-10T19:20:51;23.50;;;11.57;;
72639;SDS011;60683;51.730;8.762;2023-02-10T19:23:18;25.40;;;11.00;;
72639;SDS011;60683;51.730;8.762;2023-02-10T19:25:47;27.42;;;11.70;;
72639;SDS011;60683;51.730;8.762;2023-02-10T19:28:15;25.77;;;11.18;;
72639;SDS011;60683;51.730;8.762;2023-02-10T19:30:42;20.52;;;9.38;;
72639;SDS011;60683;51.730;8.762;2023-02-10T19:33:10;24.25;;;11.25;;
72639;SDS011;60683;51.730;8.762;2023-02-10T19:35:39;21.73;;;9.30;;
72639;SDS011;60683;51.730;8.762;2023-02-10T19:38:12;23.65;;;10.90;;
72639;SDS011;60683;51.730;8.762;2023-02-10T19:40:40;25.80;;;10.50;;
72639;SDS011;60683;51.730;8.762;2023-02-10T19:43:07;26.13;;;10.25;;
72639;SDS011;60683;51.730;8.762;2023-02-10T19:45:35;24.63;;;10.63;;
72639;SDS011;60683;51.730;8.762;2023-02-10T19:48:02;23.17;;;9.95;;
72639;SDS011;60683;51.730;8.762;2023-02-10T19:50:30;22.88;;;9.10;;
72639;SDS011;60683;51.730;8.762;2023-02-10T19:52:59;23.38;;;9.88;;
72639;SDS011;60683;51.730;8.762;2023-02-10T19:55:26;24.50;;;10.10;;
72639;SDS011;60683;51.730;8.762;2023-02-10T19:57:54;20.30;;;9.15;;
72639;SDS011;60683;51.730;8.762;2023-02-10T20:00:21;23.75;;;9.88;;
72639;SDS011;60683;51.730;8.762;2023-02-10T20:02:48;24.70;;;9.63;;
72639;SDS011;60683;51.730;8.762;2023-02-10T20:05:16;20.55;;;9.32;;
72639;SDS011;60683;51.730;8.762;2023-02-10T20:07:43;20.92;;;8.88;;
72639;SDS011;60683;51.730;8.762;2023-02-10T20:10:12;24.70;;;9.40;;
72639;SDS011;60683;51.730;8.762;2023-02-10T20:12:40;23.55;;;10.48;;
72639;SDS011;60683;51.730;8.762;2023-02-10T20:15:07;18.13;;;7.65;;
72639;SDS011;60683;51.730;8.762;2023-02-10T20:17:35;23.52;;;9.98;;
72639;SDS011;60683;51.730;8.762;2023-02-10T20:20:02;24.10;;;9.80;;
72639;SDS011;60683;51.730;8.762;2023-02-10T20:22:30;19.52;;;9.68;;
72639;SDS011;60683;51.730;8.762;2023-02-10T20:24:58;16.52;;;7.88;;
72639;SDS011;60683;51.730;8.762;2023-02-10T20:27:26;15.27;;;7.85;;
72639;SDS011;60683;51.730;8.762;2023-02-10T20:29:54;20.10;;;9.13;;
72639;SDS011;60683;51.730;8.762;2023-02-10T20:32:22;14.88;;;6.60;;
72639;SDS011;60683;51.730;8.762;2023-02-10T20:34:51;18.42;;;7.68;;
72639;SDS011;60683;51.730;8.762;2023-02-10T20:37:18;16.67;;;6.35;;
72639;SDS011;60683;51.730;8.762;2023-02-10T20:39:46;17.05;;;9.45;;
72639;SDS011;60683;51.730;8.762;2023-02-10T20:42:14;19.73;;;8.18;;
72639;SDS011;60683;51.730;8.762;2023-02-10T20:44:43;14.85;;;7.35;;
72639;SDS011;60683;51.730;8.762;2023-02-10T20:47:10;18.42;;;8.25;;
72639;SDS011;60683;51.730;8.762;2023-02-10T20:49:38;19.38;;;8.73;;
72639;SDS011;60683;51.730;8.762;2023-02-10T20:52:05;13.50;;;5.85;;
72639;SDS011;60683;51.730;8.762;2023-02-10T20:54:33;18.55;;;7.88;;
72639;SDS011;60683;51.730;8.762;2023-02-10T20:57:01;16.35;;;8.85;;
72639;SDS011;60683;51.730;8.762;2023-02-10T20:59:29;18.80;;;6.30;;
72639;SDS011;60683;51.730;8.762;2023-02-10T21:01:57;15.27;;;7.25;;
72639;SDS011;60683;51.730;8.762;2023-02-10T21:04:25;19.98;;;10.13;;
72639;SDS011;60683;51.730;8.762;2023-02-10T21:06:53;18.73;;;9.20;;
72639;SDS011;60683;51.730;8.762;2023-02-10T21:09:20;13.75;;;6.47;;
72639;SDS011;60683;51.730;8.762;2023-02-10T21:11:49;21.20;;;8.65;;
72639;SDS011;60683;51.730;8.762;2023-02-10T21:14:16;17.15;;;6.90;;
72639;SDS011;60683;51.730;8.762;2023-02-10T21:16:44;19.48;;;9.18;;
72639;SDS011;60683;51.730;8.762;2023-02-10T21:19:13;18.40;;;9.80;;
72639;SDS011;60683;51.730;8.762;2023-02-10T21:21:40;16.30;;;6.68;;
72639;SDS011;60683;51.730;8.762;2023-02-10T21:24:07;18.60;;;9.20;;
72639;SDS011;60683;51.730;8.762;2023-02-10T21:26:35;21.38;;;10.32;;
72639;SDS011;60683;51.730;8.762;2023-02-10T21:29:02;16.58;;;8.57;;
72639;SDS011;60683;51.730;8.762;2023-02-10T21:31:30;19.48;;;8.60;;
72639;SDS011;60683;51.730;8.762;2023-02-10T21:33:59;19.50;;;8.52;;
72639;SDS011;60683;51.730;8.762;2023-02-10T21:36:28;21.13;;;8.75;;
72639;SDS011;60683;51.730;8.762;2023-02-10T21:38:57;21.67;;;10.02;;
72639;SDS011;60683;51.730;8.762;2023-02-10T21:41:25;13.55;;;6.47;;
72639;SDS011;60683;51.730;8.762;2023-02-10T21:44:07;25.52;;;10.60;;
72639;SDS011;60683;51.730;8.762;2023-02-10T21:46:36;17.88;;;8.23;;
72639;SDS011;60683;51.730;8.762;2023-02-10T21:49:03;23.20;;;9.52;;
72639;SDS011;60683;51.730;8.762;2023-02-10T21:51:32;25.10;;;11.85;;
72639;SDS011;60683;51.730;8.762;2023-02-10T21:54:00;27.25;;;11.85;;
72639;SDS011;60683;51.730;8.762;2023-02-10T21:56:27;20.48;;;10.68;;
72639;SDS011;60683;51.730;8.762;2023-02-10T21:58:55;24.10;;;11.45;;
72639;SDS011;60683;51.730;8.762;2023-02-10T22:01:22;27.92;;;11.85;;
72639;SDS011;60683;51.730;8.762;2023-02-10T22:03:50;24.35;;;9.20;;
72639;SDS011;60683;51.730;8.762;2023-02-10T22:06:18;25.60;;;10.77;;
72639;SDS011;60683;51.730;8.762;2023-02-10T22:08:47;24.85;;;11.50;;
72639;SDS011;60683;51.730;8.762;2023-02-10T22:11:15;17.17;;;6.68;;
72639;SDS011;60683;51.730;8.762;2023-02-10T22:13:43;23.50;;;10.65;;
72639;SDS011;60683;51.730;8.762;2023-02-10T22:16:12;24.58;;;11.10;;
72639;SDS011;60683;51.730;8.762;2023-02-10T22:18:40;14.98;;;6.97;;
72639;SDS011;60683;51.730;8.762;2023-02-10T22:21:09;18.45;;;10.70;;
72639;SDS011;60683;51.730;8.762;2023-02-10T22:23:38;27.92;;;11.35;;
72639;SDS011;60683;51.730;8.762;2023-02-10T22:26:07;31.17;;;13.30;;
72639;SDS011;60683;51.730;8.762;2023-02-10T22:28:36;20.73;;;9.63;;
72639;SDS011;60683;51.730;8.762;2023-02-10T22:31:05;23.92;;;12.07;;
72639;SDS011;60683;51.730;8.762;2023-02-10T22:33:32;23.25;;;11.43;;
72639;SDS011;60683;51.730;8.762;2023-02-10T22:36:01;21.42;;;11.77;;
72639;SDS011;60683;51.730;8.762;2023-02-10T22:38:29;24.50;;;12.48;;
72639;SDS011;60683;51.730;8.762;2023-02-10T22:40:56;27.48;;;12.75;;
72639;SDS011;60683;51.730;8.762;2023-02-10T22:43:25;14.93;;;7.88;;
72639;SDS011;60683;51.730;8.762;2023-02-10T22:45:53;18.95;;;8.23;;
72639;SDS011;60683;51.730;8.762;2023-02-10T22:48:20;17.30;;;8.43;;
72639;SDS011;60683;51.730;8.762;2023-02-10T22:50:47;24.27;;;8.88;;
72639;SDS011;60683;51.730;8.762;2023-02-10T22:53:15;23.15;;;10.82;;
72639;SDS011;60683;51.730;8.762;2023-02-10T22:55:42;27.63;;;12.70;;
72639;SDS011;60683;51.730;8.762;2023-02-10T22:58:10;20.60;;;9.80;;
72639;SDS011;60683;51.730;8.762;2023-02-10T23:00:39;22.25;;;10.80;;
72639;SDS011;60683;51.730;8.762;2023-02-10T23:03:07;27.65;;;11.35;;
72639;SDS011;60683;51.730;8.762;2023-02-10T23:05:34;20.90;;;10.00;;
72639;SDS011;60683;51.730;8.762;2023-02-10T23:08:02;29.83;;;12.93;;
72639;SDS011;60683;51.730;8.762;2023-02-10T23:10:30;16.38;;;7.13;;
72639;SDS011;60683;51.730;8.762;2023-02-10T23:12:58;32.88;;;14.48;;
72639;SDS011;60683;51.730;8.762;2023-02-10T23:15:25;20.00;;;10.10;;
72639;SDS011;60683;51.730;8.762;2023-02-10T23:17:54;29.33;;;12.40;;
72639;SDS011;60683;51.730;8.762;2023-02-10T23:20:21;22.15;;;12.20;;
72639;SDS011;60683;51.730;8.762;2023-02-10T23:22:49;22.67;;;10.48;;
72639;SDS011;60683;51.730;8.762;2023-02-10T23:25:16;33.72;;;13.10;;
72639;SDS011;60683;51.730;8.762;2023-02-10T23:27:44;31.70;;;14.35;;
72639;SDS011;60683;51.730;8.762;2023-02-10T23:30:11;24.73;;;11.55;;
72639;SDS011;60683;51.730;8.762;2023-02-10T23:32:39;25.15;;;11.00;;
72639;SDS011;60683;51.730;8.762;2023-02-10T23:35:08;22.70;;;10.45;;
72639;SDS011;60683;51.730;8.762;2023-02-10T23:37:36;24.48;;;12.07;;
72639;SDS011;60683;51.730;8.762;2023-02-10T23:40:03;24.40;;;11.90;;
72639;SDS011;60683;51.730;8.762;2023-02-10T23:42:31;32.67;;;13.27;;
72639;SDS011;60683;51.730;8.762;2023-02-10T23:44:59;25.55;;;12.10;;